VLG225 LEPA-EDLV
Flight info
| Callsign | VLG225 |
|---|---|
| Flight time | 1h 59m |
| Altitude | 36000 |
| Route | MEROS DCT LAPIT DCT CHELY N853 LUMAS DCT SOSUR DCT SECON DCT ODIXU DCT MAXIR DCT LUSOL DCT BODRU DCT OKTET DCT IRMAR DCT KINES DCT VANAS DCT MOBLO DCT UBIMA DCT GILIR DCT PENDU DCT IXILU DCT GIVOR DCT SORAL DCT IBERA N853 DIK/N0460F310 N853 ARCKY T853 IBESA T474 LAA |
| Aircraft | A320/M-SDE3FGHIRWY/LB1 |
Departure
| Time | 2026-04-30 19:56 |
|---|---|
| Airport | Palma de Mallorca Airport (LEPA) |
Arrival
| Time | 2026-04-30 21:55 |
|---|---|
| Airport | Weeze (Niederrhein) Airport (EDLV) |
| Time | Latitude | Longitude | Altitude | Speed | Heading |
|---|---|---|---|---|---|
| 2026-04-30 19:36 | 39.54800 | 2.73606 | 30 ft | 0 kts | 57° |
| 2026-04-30 19:43 | 39.54796 | 2.73598 | 30 ft | 2 kts | 58° |
| 2026-04-30 19:43 | 39.54787 | 2.73581 | 30 ft | 2 kts | 58° |
| 2026-04-30 19:44 | 39.54774 | 2.73543 | 30 ft | 2 kts | 115° |
| 2026-04-30 19:44 | 39.54780 | 2.73523 | 28 ft | 2 kts | 141° |
| 2026-04-30 19:44 | 39.54789 | 2.73515 | 27 ft | 0 kts | 150° |
| 2026-04-30 19:45 | 39.54804 | 2.73504 | 30 ft | 3 kts | 149° |
| 2026-04-30 19:45 | 39.54807 | 2.73502 | 30 ft | 0 kts | 149° |
| 2026-04-30 19:46 | 39.54800 | 2.73508 | 30 ft | 5 kts | 149° |
| 2026-04-30 19:46 | 39.54736 | 2.73558 | 30 ft | 16 kts | 148° |
| 2026-04-30 19:46 | 39.54625 | 2.73621 | 30 ft | 15 kts | 167° |
| 2026-04-30 19:46 | 39.54536 | 2.73588 | 30 ft | 16 kts | 238° |
| 2026-04-30 19:47 | 39.54470 | 2.73449 | 30 ft | 20 kts | 236° |
| 2026-04-30 19:47 | 39.54418 | 2.73340 | 30 ft | 22 kts | 239° |
| 2026-04-30 19:47 | 39.54341 | 2.73178 | 30 ft | 13 kts | 238° |
| 2026-04-30 19:47 | 39.54321 | 2.73136 | 30 ft | 1 kts | 238° |
| 2026-04-30 19:48 | 39.54305 | 2.73101 | 30 ft | 9 kts | 238° |
| 2026-04-30 19:48 | 39.54256 | 2.72997 | 30 ft | 13 kts | 238° |
| 2026-04-30 19:48 | 39.54181 | 2.72937 | 30 ft | 14 kts | 159° |
| 2026-04-30 19:48 | 39.54158 | 2.73002 | 30 ft | 0 kts | 95° |
| 2026-04-30 19:54 | 39.54158 | 2.73009 | 29 ft | 4 kts | 95° |
| 2026-04-30 19:55 | 39.54152 | 2.73102 | 30 ft | 16 kts | 94° |
| 2026-04-30 19:55 | 39.54164 | 2.73252 | 30 ft | 17 kts | 60° |
| 2026-04-30 19:55 | 39.54233 | 2.73394 | 30 ft | 20 kts | 59° |
| 2026-04-30 19:55 | 39.54345 | 2.73633 | 29 ft | 66 kts | 59° |
| 2026-04-30 19:56 | 39.54758 | 2.74517 | 43 ft | 156 kts | 60° |
| 2026-04-30 19:56 | 39.55356 | 2.75807 | 764 ft | 176 kts | 58° |
| 2026-04-30 19:56 | 39.56038 | 2.77190 | 1615 ft | 181 kts | 57° |
| 2026-04-30 19:56 | 39.56756 | 2.78542 | 2143 ft | 189 kts | 55° |
| 2026-04-30 19:57 | 39.57517 | 2.80027 | 2482 ft | 208 kts | 60° |
| 2026-04-30 19:57 | 39.58239 | 2.81685 | 3129 ft | 213 kts | 61° |
| 2026-04-30 19:57 | 39.58964 | 2.83398 | 3781 ft | 221 kts | 61° |
| 2026-04-30 19:57 | 39.59703 | 2.85120 | 3952 ft | 220 kts | 59° |
| 2026-04-30 19:58 | 39.60469 | 2.86873 | 4003 ft | 220 kts | 59° |
| 2026-04-30 19:58 | 39.61228 | 2.88583 | 4269 ft | 224 kts | 59° |
| 2026-04-30 19:58 | 39.62014 | 2.90330 | 5280 ft | 226 kts | 58° |
| 2026-04-30 19:58 | 39.62835 | 2.92177 | 5943 ft | 249 kts | 59° |
| 2026-04-30 19:59 | 39.63732 | 2.94237 | 6570 ft | 273 kts | 60° |
| 2026-04-30 19:59 | 39.64678 | 2.96439 | 7407 ft | 284 kts | 60° |
| 2026-04-30 19:59 | 39.66651 | 3.01037 | 9334 ft | 299 kts | 60° |
| 2026-04-30 20:00 | 39.67680 | 3.03423 | 10263 ft | 307 kts | 60° |
| 2026-04-30 20:00 | 39.68764 | 3.05929 | 10712 ft | 331 kts | 60° |
| 2026-04-30 20:00 | 39.69931 | 3.08628 | 11124 ft | 352 kts | 60° |
| 2026-04-30 20:00 | 39.71130 | 3.11409 | 11876 ft | 361 kts | 60° |
| 2026-04-30 20:01 | 39.73610 | 3.17156 | 13687 ft | 369 kts | 60° |
| 2026-04-30 20:01 | 39.74873 | 3.20082 | 14526 ft | 373 kts | 60° |
| 2026-04-30 20:01 | 39.76148 | 3.23042 | 15336 ft | 377 kts | 60° |
| 2026-04-30 20:02 | 39.79139 | 3.28679 | 16050 ft | 381 kts | 47° |
| 2026-04-30 20:02 | 39.80878 | 3.31272 | 16104 ft | 381 kts | 47° |
| 2026-04-30 20:03 | 39.84354 | 3.36470 | 16103 ft | 381 kts | 47° |
| 2026-04-30 20:03 | 39.86088 | 3.39074 | 16103 ft | 381 kts | 47° |
| 2026-04-30 20:03 | 39.87822 | 3.41681 | 16103 ft | 381 kts | 47° |
| 2026-04-30 20:03 | 39.89572 | 3.44312 | 16548 ft | 386 kts | 47° |
| 2026-04-30 20:04 | 39.91330 | 3.46956 | 17406 ft | 388 kts | 47° |
| 2026-04-30 20:04 | 39.93108 | 3.49633 | 18204 ft | 392 kts | 47° |
| 2026-04-30 20:04 | 39.94900 | 3.52340 | 18906 ft | 396 kts | 47° |
| 2026-04-30 20:05 | 39.98533 | 3.57844 | 20361 ft | 405 kts | 47° |
| 2026-04-30 20:05 | 40.00361 | 3.60605 | 21083 ft | 410 kts | 47° |
| 2026-04-30 20:05 | 40.04111 | 3.66271 | 22538 ft | 419 kts | 47° |
| 2026-04-30 20:06 | 40.06053 | 3.69210 | 23525 ft | 425 kts | 47° |
| 2026-04-30 20:06 | 40.07989 | 3.72146 | 24339 ft | 431 kts | 47° |
| 2026-04-30 20:06 | 40.09954 | 3.75132 | 25071 ft | 436 kts | 47° |
| 2026-04-30 20:06 | 40.11941 | 3.78159 | 25737 ft | 441 kts | 47° |
| 2026-04-30 20:07 | 40.13947 | 3.81221 | 26357 ft | 446 kts | 47° |
| 2026-04-30 20:07 | 40.15973 | 3.84314 | 26939 ft | 451 kts | 47° |
| 2026-04-30 20:07 | 40.20090 | 3.90601 | 28068 ft | 459 kts | 47° |
| 2026-04-30 20:08 | 40.22180 | 3.93789 | 28598 ft | 464 kts | 47° |
| 2026-04-30 20:08 | 40.24289 | 3.97010 | 29119 ft | 468 kts | 47° |
| 2026-04-30 20:08 | 40.26415 | 4.00270 | 29632 ft | 472 kts | 47° |
| 2026-04-30 20:08 | 40.28551 | 4.03553 | 30131 ft | 476 kts | 47° |
| 2026-04-30 20:09 | 40.30707 | 4.06871 | 30545 ft | 480 kts | 47° |
| 2026-04-30 20:09 | 40.32877 | 4.10211 | 30969 ft | 483 kts | 47° |
| 2026-04-30 20:09 | 40.37263 | 4.16956 | 31755 ft | 489 kts | 47° |
| 2026-04-30 20:10 | 40.41665 | 4.23742 | 32860 ft | 487 kts | 47° |
| 2026-04-30 20:10 | 40.43853 | 4.27126 | 33387 ft | 486 kts | 47° |
| 2026-04-30 20:10 | 40.46078 | 4.30460 | 33960 ft | 483 kts | 42° |
| 2026-04-30 20:11 | 40.51379 | 4.35672 | 34979 ft | 471 kts | 23° |
| 2026-04-30 20:11 | 40.54365 | 4.37371 | 35498 ft | 465 kts | 14° |
| 2026-04-30 20:11 | 40.57426 | 4.38438 | 35950 ft | 459 kts | 6° |
| 2026-04-30 20:12 | 40.63681 | 4.39931 | 36114 ft | 454 kts | 5° |
| 2026-04-30 20:12 | 40.66778 | 4.40672 | 36111 ft | 452 kts | 5° |
| 2026-04-30 20:13 | 40.72964 | 4.42156 | 36114 ft | 451 kts | 5° |
| 2026-04-30 20:13 | 40.79147 | 4.43638 | 36114 ft | 452 kts | 5° |
| 2026-04-30 20:14 | 40.85327 | 4.45125 | 36115 ft | 451 kts | 5° |
| 2026-04-30 20:14 | 40.91489 | 4.46610 | 36118 ft | 450 kts | 5° |
| 2026-04-30 20:15 | 40.97657 | 4.48110 | 36126 ft | 450 kts | 5° |
| 2026-04-30 20:15 | 41.02778 | 4.49360 | 36131 ft | 450 kts | 5° |
| 2026-04-30 20:16 | 41.08948 | 4.50867 | 36146 ft | 450 kts | 5° |
| 2026-04-30 20:16 | 41.15110 | 4.52365 | 36146 ft | 450 kts | 5° |
| 2026-04-30 20:17 | 41.21269 | 4.53855 | 36149 ft | 450 kts | 5° |
| 2026-04-30 20:17 | 41.27417 | 4.55351 | 36159 ft | 449 kts | 5° |
| 2026-04-30 20:18 | 41.33537 | 4.56853 | 36159 ft | 449 kts | 5° |
| 2026-04-30 20:18 | 41.39683 | 4.58363 | 36164 ft | 448 kts | 5° |
| 2026-04-30 20:19 | 41.45817 | 4.59865 | 36157 ft | 448 kts | 5° |
| 2026-04-30 20:19 | 41.51950 | 4.61371 | 36175 ft | 447 kts | 5° |
| 2026-04-30 20:20 | 41.58066 | 4.62885 | 36169 ft | 446 kts | 5° |
| 2026-04-30 20:20 | 41.64151 | 4.64395 | 36169 ft | 446 kts | 5° |
| 2026-04-30 20:21 | 41.70251 | 4.65899 | 36189 ft | 446 kts | 4° |
| 2026-04-30 20:21 | 41.76305 | 4.67830 | 36173 ft | 450 kts | 10° |
| 2026-04-30 20:22 | 41.82309 | 4.70210 | 36178 ft | 450 kts | 10° |
| 2026-04-30 20:22 | 41.88311 | 4.72584 | 36176 ft | 449 kts | 10° |
| 2026-04-30 20:23 | 41.94271 | 4.74952 | 36185 ft | 449 kts | 10° |
| 2026-04-30 20:23 | 42.00265 | 4.77340 | 36181 ft | 449 kts | 10° |
| 2026-04-30 20:24 | 42.06255 | 4.79721 | 36187 ft | 449 kts | 10° |
| 2026-04-30 20:24 | 42.12252 | 4.82116 | 36208 ft | 449 kts | 10° |
| 2026-04-30 20:25 | 42.21235 | 4.85719 | 36193 ft | 448 kts | 10° |
| 2026-04-30 20:26 | 42.30161 | 4.89299 | 36198 ft | 448 kts | 10° |
| 2026-04-30 20:26 | 42.39112 | 4.92901 | 36203 ft | 448 kts | 10° |
| 2026-04-30 20:27 | 42.51046 | 4.97712 | 36234 ft | 447 kts | 10° |
| 2026-04-30 20:28 | 42.62907 | 5.02495 | 36206 ft | 443 kts | 10° |
| 2026-04-30 20:30 | 42.77710 | 5.08345 | 36208 ft | 445 kts | 12° |
| 2026-04-30 20:30 | 42.85596 | 5.15288 | 36204 ft | 468 kts | 43° |
| 2026-04-30 20:31 | 42.91662 | 5.25832 | 36219 ft | 471 kts | 48° |
| 2026-04-30 20:32 | 43.01643 | 5.43521 | 36220 ft | 469 kts | 47° |
| 2026-04-30 20:33 | 43.07603 | 5.54119 | 36216 ft | 469 kts | 48° |
| 2026-04-30 20:34 | 43.13732 | 5.64489 | 36215 ft | 465 kts | 44° |
| 2026-04-30 20:35 | 43.20287 | 5.74249 | 36218 ft | 464 kts | 43° |
| 2026-04-30 20:35 | 43.26760 | 5.84113 | 36216 ft | 464 kts | 44° |
| 2026-04-30 20:36 | 43.31019 | 5.90763 | 36227 ft | 463 kts | 44° |
| 2026-04-30 20:37 | 43.37730 | 6.00152 | 36233 ft | 453 kts | 30° |
| 2026-04-30 20:37 | 43.43285 | 6.03835 | 36229 ft | 438 kts | 11° |
| 2026-04-30 20:38 | 43.49227 | 6.05036 | 36233 ft | 430 kts | 359° |
| 2026-04-30 20:38 | 43.55190 | 6.05629 | 36225 ft | 430 kts | 360° |
| 2026-04-30 20:39 | 43.64106 | 6.06542 | 36228 ft | 430 kts | 360° |
| 2026-04-30 20:40 | 43.73072 | 6.07446 | 36236 ft | 431 kts | 0° |
| 2026-04-30 20:40 | 43.78974 | 6.09184 | 36245 ft | 440 kts | 18° |
| 2026-04-30 20:41 | 43.87291 | 6.14752 | 36248 ft | 443 kts | 22° |
| 2026-04-30 20:41 | 43.92821 | 6.18526 | 36247 ft | 443 kts | 22° |
| 2026-04-30 20:42 | 43.98358 | 6.22309 | 36247 ft | 443 kts | 22° |
| 2026-04-30 20:43 | 44.06608 | 6.27965 | 36248 ft | 443 kts | 23° |
| 2026-04-30 20:43 | 44.12127 | 6.31752 | 36247 ft | 443 kts | 23° |
| 2026-04-30 20:44 | 44.20407 | 6.37464 | 36243 ft | 443 kts | 23° |
| 2026-04-30 20:45 | 44.31452 | 6.45100 | 36252 ft | 443 kts | 24° |
| 2026-04-30 20:45 | 44.36973 | 6.48932 | 36264 ft | 443 kts | 23° |
| 2026-04-30 20:46 | 44.48007 | 6.56596 | 36281 ft | 442 kts | 24° |
| 2026-04-30 20:47 | 44.56250 | 6.62377 | 36282 ft | 441 kts | 24° |
| 2026-04-30 20:48 | 44.64486 | 6.68142 | 36287 ft | 441 kts | 24° |
| 2026-04-30 20:48 | 44.69973 | 6.71982 | 36301 ft | 441 kts | 24° |
| 2026-04-30 20:49 | 44.75458 | 6.75835 | 36297 ft | 440 kts | 24° |
| 2026-04-30 20:50 | 44.84223 | 6.78764 | 36304 ft | 432 kts | 357° |
| 2026-04-30 20:50 | 44.90215 | 6.78391 | 36305 ft | 431 kts | 355° |
| 2026-04-30 20:51 | 44.96198 | 6.77979 | 36306 ft | 430 kts | 355° |
| 2026-04-30 20:51 | 45.05166 | 6.77383 | 36308 ft | 430 kts | 356° |
| 2026-04-30 20:52 | 45.11136 | 6.76997 | 36308 ft | 429 kts | 356° |
| 2026-04-30 20:53 | 45.20052 | 6.76398 | 36293 ft | 429 kts | 356° |
| 2026-04-30 20:53 | 45.26055 | 6.75993 | 36290 ft | 429 kts | 356° |
| 2026-04-30 20:54 | 45.34969 | 6.75402 | 36283 ft | 429 kts | 356° |
| 2026-04-30 20:55 | 45.43929 | 6.74808 | 36277 ft | 429 kts | 356° |
| 2026-04-30 20:55 | 45.49899 | 6.74414 | 36273 ft | 429 kts | 356° |
| 2026-04-30 20:56 | 45.58820 | 6.73796 | 36278 ft | 429 kts | 357° |
| 2026-04-30 20:57 | 45.67764 | 6.73170 | 36264 ft | 429 kts | 357° |
| 2026-04-30 20:57 | 45.73729 | 6.72753 | 36261 ft | 429 kts | 357° |
| 2026-04-30 20:58 | 45.82675 | 6.72142 | 36267 ft | 429 kts | 358° |
| 2026-04-30 20:58 | 45.88626 | 6.71744 | 36265 ft | 428 kts | 358° |
| 2026-04-30 20:59 | 45.97558 | 6.71140 | 36229 ft | 429 kts | 358° |
| 2026-04-30 21:00 | 46.09505 | 6.70324 | 36226 ft | 430 kts | 358° |
| 2026-04-30 21:01 | 46.15384 | 6.68798 | 36227 ft | 432 kts | 342° |
| 2026-04-30 21:01 | 46.18231 | 6.67401 | 36232 ft | 432 kts | 343° |
| 2026-04-30 21:02 | 46.26732 | 6.63266 | 36238 ft | 432 kts | 343° |
| 2026-04-30 21:02 | 46.32423 | 6.60500 | 36238 ft | 431 kts | 343° |
| 2026-04-30 21:03 | 46.38110 | 6.57731 | 36247 ft | 431 kts | 343° |
| 2026-04-30 21:03 | 46.43797 | 6.54951 | 36251 ft | 431 kts | 343° |
| 2026-04-30 21:04 | 46.49466 | 6.52165 | 36253 ft | 430 kts | 343° |
| 2026-04-30 21:04 | 46.57965 | 6.47988 | 36252 ft | 429 kts | 343° |
| 2026-04-30 21:05 | 46.63597 | 6.45205 | 36232 ft | 431 kts | 343° |
| 2026-04-30 21:05 | 46.69278 | 6.42394 | 36224 ft | 432 kts | 343° |
| 2026-04-30 21:06 | 46.74979 | 6.39571 | 36224 ft | 433 kts | 343° |
| 2026-04-30 21:06 | 46.80692 | 6.36737 | 36230 ft | 434 kts | 343° |
| 2026-04-30 21:07 | 46.85475 | 6.34355 | 36237 ft | 434 kts | 343° |
| 2026-04-30 21:07 | 46.91146 | 6.31524 | 36238 ft | 433 kts | 343° |
| 2026-04-30 21:08 | 46.96854 | 6.28673 | 36239 ft | 433 kts | 343° |
| 2026-04-30 21:08 | 47.02558 | 6.25821 | 36240 ft | 433 kts | 343° |
| 2026-04-30 21:09 | 47.08177 | 6.22606 | 36221 ft | 435 kts | 336° |
| 2026-04-30 21:09 | 47.13619 | 6.18681 | 36219 ft | 435 kts | 336° |
| 2026-04-30 21:10 | 47.19059 | 6.14753 | 36199 ft | 436 kts | 336° |
| 2026-04-30 21:10 | 47.24519 | 6.10814 | 36183 ft | 437 kts | 336° |
| 2026-04-30 21:11 | 47.29982 | 6.06853 | 36188 ft | 438 kts | 336° |
| 2026-04-30 21:11 | 47.35679 | 6.03848 | 36189 ft | 434 kts | 352° |
| 2026-04-30 21:12 | 47.41663 | 6.03415 | 36194 ft | 431 kts | 3° |
| 2026-04-30 21:12 | 47.47657 | 6.03558 | 36195 ft | 431 kts | 3° |
| 2026-04-30 21:13 | 47.53614 | 6.03693 | 36196 ft | 431 kts | 3° |
| 2026-04-30 21:13 | 47.59615 | 6.03816 | 36209 ft | 431 kts | 2° |
| 2026-04-30 21:14 | 47.65617 | 6.03946 | 36210 ft | 431 kts | 3° |
| 2026-04-30 21:14 | 47.71622 | 6.04077 | 36211 ft | 432 kts | 3° |
| 2026-04-30 21:15 | 47.77506 | 6.05431 | 36221 ft | 428 kts | 16° |
| 2026-04-30 21:15 | 47.83280 | 6.07611 | 36224 ft | 428 kts | 16° |
| 2026-04-30 21:16 | 47.89058 | 6.09791 | 36226 ft | 429 kts | 16° |
| 2026-04-30 21:16 | 47.94847 | 6.11972 | 36233 ft | 429 kts | 16° |
| 2026-04-30 21:17 | 48.00636 | 6.14151 | 36239 ft | 429 kts | 16° |
| 2026-04-30 21:17 | 48.06426 | 6.16348 | 36241 ft | 429 kts | 16° |
| 2026-04-30 21:18 | 48.12221 | 6.18541 | 36246 ft | 429 kts | 16° |
| 2026-04-30 21:18 | 48.18019 | 6.20737 | 36251 ft | 430 kts | 16° |
| 2026-04-30 21:19 | 48.23816 | 6.22944 | 36257 ft | 430 kts | 16° |
| 2026-04-30 21:19 | 48.29573 | 6.25150 | 36251 ft | 429 kts | 17° |
| 2026-04-30 21:20 | 48.35368 | 6.27375 | 36255 ft | 429 kts | 17° |
| 2026-04-30 21:20 | 48.41157 | 6.29604 | 36258 ft | 429 kts | 16° |
| 2026-04-30 21:21 | 48.46944 | 6.31829 | 36260 ft | 429 kts | 17° |
| 2026-04-30 21:22 | 48.55622 | 6.35171 | 36278 ft | 429 kts | 17° |
| 2026-04-30 21:23 | 48.67264 | 6.39287 | 36288 ft | 432 kts | 7° |
| 2026-04-30 21:23 | 48.76273 | 6.40187 | 36288 ft | 433 kts | 6° |
| 2026-04-30 21:24 | 48.82283 | 6.40800 | 36285 ft | 432 kts | 6° |
| 2026-04-30 21:24 | 48.88250 | 6.41407 | 36283 ft | 432 kts | 6° |
| 2026-04-30 21:25 | 48.97260 | 6.42329 | 36281 ft | 433 kts | 6° |
| 2026-04-30 21:26 | 49.06282 | 6.43244 | 36286 ft | 433 kts | 6° |
| 2026-04-30 21:27 | 49.15278 | 6.42190 | 36295 ft | 439 kts | 347° |
| 2026-04-30 21:27 | 49.21173 | 6.39758 | 36299 ft | 438 kts | 347° |
| 2026-04-30 21:28 | 49.29967 | 6.36138 | 36306 ft | 438 kts | 347° |
| 2026-04-30 21:29 | 49.38793 | 6.32492 | 36311 ft | 438 kts | 347° |
| 2026-04-30 21:30 | 49.53521 | 6.26404 | 36301 ft | 438 kts | 347° |
| 2026-04-30 21:31 | 49.68286 | 6.20356 | 36309 ft | 440 kts | 347° |
| 2026-04-30 21:32 | 49.77160 | 6.16694 | 36319 ft | 440 kts | 347° |
| 2026-04-30 21:32 | 49.83073 | 6.14249 | 36317 ft | 440 kts | 347° |
| 2026-04-30 21:33 | 49.92111 | 6.13000 | 36321 ft | 435 kts | 2° |
| 2026-04-30 21:34 | 49.98134 | 6.13043 | 36328 ft | 435 kts | 2° |
| 2026-04-30 21:34 | 50.07217 | 6.13110 | 36326 ft | 435 kts | 2° |
| 2026-04-30 21:35 | 50.13272 | 6.13142 | 36305 ft | 436 kts | 2° |
| 2026-04-30 21:35 | 50.19351 | 6.13171 | 36295 ft | 438 kts | 2° |
| 2026-04-30 21:36 | 50.25446 | 6.13247 | 36295 ft | 438 kts | 6° |
| 2026-04-30 21:37 | 50.34020 | 6.17434 | 36304 ft | 431 kts | 34° |
| 2026-04-30 21:37 | 50.36525 | 6.20005 | 36306 ft | 431 kts | 35° |
| 2026-04-30 21:37 | 50.41537 | 6.25169 | 36311 ft | 431 kts | 34° |
| 2026-04-30 21:38 | 50.46559 | 6.30334 | 36323 ft | 431 kts | 35° |
| 2026-04-30 21:38 | 50.51839 | 6.34667 | 35935 ft | 424 kts | 21° |
| 2026-04-30 21:39 | 50.54584 | 6.36215 | 35244 ft | 413 kts | 22° |
| 2026-04-30 21:39 | 50.57268 | 6.37715 | 34452 ft | 406 kts | 21° |
| 2026-04-30 21:39 | 50.59910 | 6.39181 | 33566 ft | 400 kts | 19° |
| 2026-04-30 21:39 | 50.62633 | 6.39949 | 32692 ft | 398 kts | 3° |
| 2026-04-30 21:40 | 50.65378 | 6.39451 | 31840 ft | 397 kts | 348° |
| 2026-04-30 21:40 | 50.68000 | 6.38353 | 30996 ft | 395 kts | 346° |
| 2026-04-30 21:40 | 50.70667 | 6.37208 | 30180 ft | 391 kts | 346° |
| 2026-04-30 21:40 | 50.73279 | 6.36078 | 29297 ft | 387 kts | 346° |
| 2026-04-30 21:41 | 50.75860 | 6.34964 | 28469 ft | 383 kts | 347° |
| 2026-04-30 21:41 | 50.78382 | 6.33881 | 27673 ft | 379 kts | 347° |
| 2026-04-30 21:41 | 50.80920 | 6.32787 | 26855 ft | 375 kts | 347° |
| 2026-04-30 21:41 | 50.83429 | 6.31706 | 26048 ft | 372 kts | 347° |
| 2026-04-30 21:42 | 50.85917 | 6.30633 | 25251 ft | 369 kts | 347° |
| 2026-04-30 21:42 | 50.88381 | 6.29571 | 24471 ft | 366 kts | 347° |
| 2026-04-30 21:42 | 50.90834 | 6.28511 | 23666 ft | 363 kts | 347° |
| 2026-04-30 21:42 | 50.93254 | 6.27466 | 22810 ft | 360 kts | 347° |
| 2026-04-30 21:43 | 50.95662 | 6.26426 | 21992 ft | 356 kts | 348° |
| 2026-04-30 21:43 | 50.97244 | 6.25743 | 21465 ft | 353 kts | 348° |
| 2026-04-30 21:43 | 51.00393 | 6.24381 | 20448 ft | 348 kts | 348° |
| 2026-04-30 21:43 | 51.02706 | 6.23375 | 19711 ft | 344 kts | 348° |
| 2026-04-30 21:44 | 51.04980 | 6.22387 | 18998 ft | 341 kts | 348° |
| 2026-04-30 21:44 | 51.07263 | 6.21396 | 18250 ft | 338 kts | 348° |
| 2026-04-30 21:44 | 51.09520 | 6.20413 | 17468 ft | 334 kts | 348° |
| 2026-04-30 21:44 | 51.11747 | 6.19439 | 16723 ft | 330 kts | 348° |
| 2026-04-30 21:45 | 51.13953 | 6.18483 | 15996 ft | 327 kts | 348° |
| 2026-04-30 21:45 | 51.16137 | 6.17547 | 15293 ft | 323 kts | 348° |
| 2026-04-30 21:45 | 51.18308 | 6.16644 | 14605 ft | 321 kts | 348° |
| 2026-04-30 21:45 | 51.20457 | 6.15760 | 13907 ft | 318 kts | 348° |
| 2026-04-30 21:46 | 51.22587 | 6.14886 | 13169 ft | 314 kts | 348° |
| 2026-04-30 21:46 | 51.24700 | 6.14018 | 12446 ft | 311 kts | 348° |
| 2026-04-30 21:46 | 51.26788 | 6.13162 | 11738 ft | 309 kts | 348° |
| 2026-04-30 21:46 | 51.28861 | 6.12313 | 11056 ft | 306 kts | 348° |
| 2026-04-30 21:47 | 51.30917 | 6.11472 | 10379 ft | 304 kts | 348° |
| 2026-04-30 21:47 | 51.32955 | 6.10638 | 9661 ft | 301 kts | 348° |
| 2026-04-30 21:47 | 51.34948 | 6.09820 | 8993 ft | 298 kts | 348° |
| 2026-04-30 21:47 | 51.36939 | 6.08998 | 8323 ft | 295 kts | 348° |
| 2026-04-30 21:48 | 51.38916 | 6.08175 | 7662 ft | 292 kts | 348° |
| 2026-04-30 21:48 | 51.40881 | 6.07350 | 7006 ft | 290 kts | 347° |
| 2026-04-30 21:48 | 51.42694 | 6.05969 | 6336 ft | 292 kts | 322° |
| 2026-04-30 21:48 | 51.44158 | 6.03720 | 5640 ft | 291 kts | 314° |
| 2026-04-30 21:49 | 51.45533 | 6.01353 | 4998 ft | 289 kts | 313° |
| 2026-04-30 21:49 | 51.46890 | 5.98993 | 4324 ft | 287 kts | 313° |
| 2026-04-30 21:49 | 51.48250 | 5.96655 | 3641 ft | 287 kts | 313° |
| 2026-04-30 21:49 | 51.49618 | 5.94336 | 3402 ft | 288 kts | 313° |
| 2026-04-30 21:50 | 51.51001 | 5.91997 | 3341 ft | 290 kts | 313° |
| 2026-04-30 21:50 | 51.52396 | 5.89637 | 3349 ft | 293 kts | 313° |
| 2026-04-30 21:50 | 51.53794 | 5.87270 | 3328 ft | 291 kts | 313° |
| 2026-04-30 21:50 | 51.55193 | 5.84935 | 3329 ft | 290 kts | 317° |
| 2026-04-30 21:51 | 51.56883 | 5.83214 | 3329 ft | 288 kts | 342° |
| 2026-04-30 21:51 | 51.58811 | 5.82783 | 3330 ft | 277 kts | 14° |
| 2026-04-30 21:51 | 51.60473 | 5.84033 | 3325 ft | 260 kts | 51° |
| 2026-04-30 21:51 | 51.61306 | 5.86441 | 3331 ft | 242 kts | 85° |
| 2026-04-30 21:52 | 51.61379 | 5.89112 | 3331 ft | 239 kts | 98° |
| 2026-04-30 21:52 | 51.61206 | 5.91752 | 3330 ft | 236 kts | 101° |
| 2026-04-30 21:52 | 51.61000 | 5.94369 | 3353 ft | 237 kts | 101° |
| 2026-04-30 21:52 | 51.60822 | 5.96959 | 3262 ft | 229 kts | 99° |
| 2026-04-30 21:53 | 51.60693 | 5.99454 | 2670 ft | 216 kts | 99° |
| 2026-04-30 21:53 | 51.60612 | 6.01813 | 1979 ft | 212 kts | 96° |
| 2026-04-30 21:53 | 51.60564 | 6.04173 | 1339 ft | 210 kts | 97° |
| 2026-04-30 21:53 | 51.60414 | 6.06491 | 874 ft | 211 kts | 93° |
| 2026-04-30 21:54 | 51.60429 | 6.08768 | 634 ft | 187 kts | 91° |
| 2026-04-30 21:54 | 51.60322 | 6.10691 | 361 ft | 157 kts | 92° |
| 2026-04-30 21:54 | 51.60289 | 6.12348 | 209 ft | 139 kts | 93° |
| 2026-04-30 21:54 | 51.60264 | 6.13710 | 122 ft | 108 kts | 91° |
| 2026-04-30 21:55 | 51.60235 | 6.14771 | 111 ft | 72 kts | 92° |
| 2026-04-30 21:55 | 51.60222 | 6.15327 | 114 ft | 31 kts | 91° |
| 2026-04-30 21:55 | 51.60218 | 6.15520 | 118 ft | 12 kts | 92° |
| 2026-04-30 21:55 | 51.60214 | 6.15685 | 119 ft | 17 kts | 92° |